createdAt,value
2018-05-17T00:00:38.607Z,12.00
2018-05-17T00:03:06.222Z,11.90
2018-05-17T00:05:33.749Z,11.90
2018-05-17T00:08:01.252Z,12.00
2018-05-17T00:10:29.762Z,11.90
2018-05-17T00:12:57.623Z,11.90
2018-05-17T00:15:25.169Z,12.00
2018-05-17T00:17:52.776Z,12.00
2018-05-17T00:20:20.478Z,12.00
2018-05-17T00:22:50.175Z,12.00
2018-05-17T00:25:17.805Z,12.00
2018-05-17T00:27:45.455Z,12.10
2018-05-17T00:30:12.988Z,12.00
2018-05-17T00:32:40.574Z,12.00
2018-05-17T00:35:08.082Z,11.90
2018-05-17T00:37:36.429Z,11.80
2018-05-17T00:40:03.988Z,11.70
2018-05-17T00:42:32.524Z,11.70
2018-05-17T00:45:00.133Z,11.70
2018-05-17T00:47:28.624Z,11.70
2018-05-17T00:49:56.126Z,11.60
2018-05-17T00:52:23.661Z,11.60
2018-05-17T00:54:51.150Z,11.60
2018-05-17T00:57:19.100Z,11.70
2018-05-17T00:59:46.865Z,11.60
2018-05-17T01:02:14.418Z,11.70
2018-05-17T01:04:42.056Z,11.60
2018-05-17T01:07:10.297Z,11.70
2018-05-17T01:09:37.793Z,11.60
2018-05-17T01:12:20.922Z,11.70
2018-05-17T01:14:48.685Z,11.70
2018-05-17T01:17:16.202Z,11.70
2018-05-17T01:19:43.867Z,11.70
2018-05-17T01:22:11.369Z,11.70
2018-05-17T01:24:38.980Z,11.70
2018-05-17T01:27:06.509Z,11.70
2018-05-17T01:29:34.194Z,11.50
2018-05-17T01:32:02.593Z,11.50
2018-05-17T01:34:30.877Z,11.40
2018-05-17T01:37:11.049Z,11.40
2018-05-17T01:39:38.574Z,11.40
2018-05-17T01:42:06.971Z,11.30
2018-05-17T01:44:34.705Z,11.30
2018-05-17T01:47:03.742Z,11.20
2018-05-17T01:49:31.349Z,11.10
2018-05-17T01:51:58.855Z,11.10
2018-05-17T01:54:26.357Z,11.10
2018-05-17T01:56:53.926Z,11.10
2018-05-17T01:59:21.742Z,11.10
2018-05-17T02:01:51.063Z,11.10
2018-05-17T02:04:18.998Z,11.10
2018-05-17T02:06:47.275Z,11.00
2018-05-17T02:09:14.951Z,11.00
2018-05-17T02:11:42.442Z,10.90
2018-05-17T02:14:10.007Z,10.90
2018-05-17T02:16:37.473Z,10.90
2018-05-17T02:19:05.846Z,10.80
2018-05-17T02:21:33.473Z,10.80
2018-05-17T02:24:00.941Z,10.60
2018-05-17T02:26:28.548Z,10.70
2018-05-17T02:28:56.025Z,10.70
2018-05-17T02:31:23.718Z,10.80
2018-05-17T02:33:51.231Z,10.80
2018-05-17T02:36:18.966Z,10.90
2018-05-17T02:38:47.208Z,10.90
2018-05-17T02:41:14.672Z,10.80
2018-05-17T02:43:43.687Z,10.80
2018-05-17T02:46:12.098Z,10.80
2018-05-17T02:48:39.801Z,10.80
2018-05-17T02:51:07.390Z,10.80
2018-05-17T02:53:36.431Z,10.90
2018-05-17T02:56:04.044Z,10.90
2018-05-17T02:58:32.304Z,10.80
2018-05-17T03:00:59.798Z,10.80
2018-05-17T03:03:27.370Z,10.90
2018-05-17T03:05:55.222Z,10.80
2018-05-17T03:08:22.746Z,10.70
2018-05-17T03:10:51.156Z,10.70
2018-05-17T03:13:19.229Z,10.70
2018-05-17T03:15:46.712Z,10.80
2018-05-17T03:18:14.262Z,10.80
2018-05-17T03:20:41.885Z,10.80
2018-05-17T03:23:09.472Z,10.80
2018-05-17T03:25:36.965Z,10.80
2018-05-17T03:28:04.523Z,10.70
2018-05-17T03:30:32.091Z,10.80
2018-05-17T03:33:00.391Z,10.80
2018-05-17T03:35:27.911Z,10.80
2018-05-17T03:37:55.383Z,10.80
2018-05-17T03:40:23.638Z,10.80
2018-05-17T03:42:51.135Z,10.80
2018-05-17T03:45:18.632Z,10.80
2018-05-17T03:47:46.153Z,10.80
2018-05-17T03:50:13.678Z,10.80
2018-05-17T03:52:41.970Z,10.70
2018-05-17T03:55:10.228Z,10.70
2018-05-17T03:57:38.556Z,10.60
2018-05-17T04:00:06.045Z,10.60
2018-05-17T04:02:45.513Z,10.70
2018-05-17T04:05:26.000Z,10.70
2018-05-17T04:07:53.528Z,10.70
2018-05-17T04:10:21.941Z,10.80
2018-05-17T04:12:49.962Z,10.80
2018-05-17T04:15:17.540Z,10.70
2018-05-17T04:17:45.832Z,10.80
2018-05-17T04:20:13.301Z,10.80
2018-05-17T04:22:40.981Z,10.80
2018-05-17T04:25:08.473Z,10.90
2018-05-17T04:27:36.144Z,10.90
2018-05-17T04:30:04.451Z,10.90
2018-05-17T04:32:32.190Z,10.90
2018-05-17T04:35:00.688Z,11.00
2018-05-17T04:37:28.210Z,10.90
2018-05-17T04:39:56.042Z,10.90
2018-05-17T04:42:23.621Z,11.00
2018-05-17T04:44:51.529Z,11.00
2018-05-17T04:47:19.154Z,10.90
2018-05-17T04:49:46.707Z,11.00
2018-05-17T04:52:14.293Z,11.00
2018-05-17T04:54:42.733Z,11.00
2018-05-17T04:57:10.571Z,11.00
2018-05-17T04:59:38.424Z,11.10
2018-05-17T05:02:05.979Z,11.10
2018-05-17T05:04:34.356Z,11.10
2018-05-17T05:07:02.053Z,11.10
2018-05-17T05:09:30.363Z,11.20
2018-05-17T05:11:57.952Z,11.20
2018-05-17T05:14:25.726Z,11.30
2018-05-17T05:16:53.306Z,11.40
2018-05-17T05:19:21.872Z,11.50
2018-05-17T05:21:50.025Z,11.50
2018-05-17T05:24:17.827Z,11.60
2018-05-17T05:26:45.528Z,11.70
2018-05-17T05:29:14.135Z,11.90
2018-05-17T05:31:42.134Z,11.80
2018-05-17T05:34:09.760Z,12.00
2018-05-17T05:36:37.394Z,12.00
2018-05-17T05:39:06.611Z,12.10
2018-05-17T05:41:34.214Z,12.10
2018-05-17T05:44:01.741Z,12.30
2018-05-17T05:46:29.292Z,12.40
2018-05-17T05:48:56.800Z,12.40
2018-05-17T05:51:24.442Z,12.50
2018-05-17T05:53:51.987Z,12.50
2018-05-17T05:56:19.702Z,12.60
2018-05-17T05:58:47.974Z,12.70
2018-05-17T06:01:16.270Z,12.70
2018-05-17T06:03:43.788Z,12.70
2018-05-17T06:06:12.080Z,13.00
2018-05-17T06:08:40.366Z,13.20
2018-05-17T06:11:08.671Z,13.10
2018-05-17T06:13:36.321Z,13.10
2018-05-17T06:16:03.809Z,13.20
2018-05-17T06:18:31.574Z,13.30
2018-05-17T06:20:59.145Z,13.40
2018-05-17T06:23:26.626Z,13.30
2018-05-17T06:25:54.883Z,13.40
2018-05-17T06:28:23.475Z,13.60
2018-05-17T06:30:51.742Z,13.70
2018-05-17T06:33:20.162Z,13.80
2018-05-17T06:35:47.669Z,13.80
2018-05-17T06:38:15.203Z,13.90
2018-05-17T06:40:42.705Z,14.00
2018-05-17T06:43:11.095Z,13.80
2018-05-17T06:45:38.573Z,13.80
2018-05-17T06:48:06.134Z,14.10
2018-05-17T06:50:33.689Z,14.50
2018-05-17T06:53:01.161Z,14.60
2018-05-17T06:55:28.684Z,14.70
2018-05-17T06:57:56.177Z,15.20
2018-05-17T07:00:23.830Z,16.20
2018-05-17T07:02:51.342Z,17.00
2018-05-17T07:05:19.600Z,18.30
2018-05-17T07:07:47.973Z,19.00
2018-05-17T07:10:15.519Z,19.00
2018-05-17T07:12:43.106Z,20.00
2018-05-17T07:15:11.365Z,21.70
2018-05-17T07:17:38.973Z,21.60
2018-05-17T07:20:06.457Z,22.00
2018-05-17T07:22:33.980Z,22.50
2018-05-17T07:25:01.578Z,22.60
2018-05-17T07:27:29.131Z,22.70
2018-05-17T07:29:56.670Z,22.90
2018-05-17T07:32:24.538Z,23.50
2018-05-17T07:34:52.423Z,23.60
2018-05-17T07:37:20.972Z,23.10
2018-05-17T07:39:48.489Z,23.10
2018-05-17T07:42:16.202Z,22.00
2018-05-17T07:44:43.876Z,21.40
2018-05-17T07:47:12.180Z,20.50
2018-05-17T07:49:40.516Z,19.90
2018-05-17T07:52:08.670Z,19.80
2018-05-17T07:54:37.766Z,20.10
2018-05-17T07:57:05.543Z,20.30
2018-05-17T07:59:33.179Z,21.00
2018-05-17T08:02:00.994Z,21.90
2018-05-17T08:04:28.878Z,22.80
2018-05-17T08:06:56.775Z,23.40
2018-05-17T08:09:24.826Z,24.10
2018-05-17T08:11:52.880Z,24.10
2018-05-17T08:14:20.557Z,22.70
2018-05-17T08:16:49.153Z,23.70
2018-05-17T08:19:17.418Z,23.70
2018-05-17T08:21:45.715Z,23.40
2018-05-17T08:24:13.440Z,23.40
2018-05-17T08:26:42.554Z,23.60
2018-05-17T08:29:10.189Z,23.60
2018-05-17T08:31:38.577Z,24.20
2018-05-17T08:34:06.934Z,24.50
2018-05-17T08:36:34.516Z,24.50
2018-05-17T08:39:02.163Z,24.80
2018-05-17T08:41:29.828Z,25.00
2018-05-17T08:43:57.388Z,24.20
2018-05-17T08:46:25.793Z,24.80
2018-05-17T08:48:53.878Z,24.80
2018-05-17T08:51:21.424Z,25.20
2018-05-17T08:53:49.002Z,25.80
2018-05-17T08:56:16.505Z,26.80
2018-05-17T08:58:44.963Z,27.00
2018-05-17T09:01:12.684Z,27.00
2018-05-17T09:03:40.313Z,26.40
2018-05-17T09:06:09.516Z,27.40
2018-05-17T09:08:37.194Z,27.30
2018-05-17T09:11:04.709Z,27.80
2018-05-17T09:13:32.549Z,27.20
2018-05-17T09:16:00.394Z,26.50
2018-05-17T09:18:28.012Z,25.60
2018-05-17T09:20:56.793Z,26.10
2018-05-17T09:23:26.335Z,26.40
2018-05-17T09:25:53.869Z,26.30
2018-05-17T09:28:22.900Z,26.60
2018-05-17T09:30:50.513Z,26.60
2018-05-17T09:33:18.827Z,28.00
2018-05-17T09:35:47.694Z,27.90
2018-05-17T09:38:15.287Z,28.30
2018-05-17T09:40:42.930Z,29.10
2018-05-17T09:43:10.487Z,28.70
2018-05-17T09:45:38.182Z,29.60
2018-05-17T09:48:05.955Z,29.60
2018-05-17T09:50:33.748Z,29.90
2018-05-17T09:53:02.030Z,29.50
2018-05-17T09:55:29.810Z,29.50
2018-05-17T09:57:57.501Z,29.90
2018-05-17T10:00:25.237Z,30.20
2018-05-17T10:02:53.031Z,30.10
2018-05-17T10:05:20.710Z,30.30
2018-05-17T10:07:48.379Z,30.80
2018-05-17T10:10:16.814Z,31.20
2018-05-17T10:12:44.279Z,31.20
2018-05-17T10:15:12.117Z,30.80
2018-05-17T10:17:39.724Z,30.70
2018-05-17T10:20:08.069Z,31.30
2018-05-17T10:22:35.772Z,31.50
2018-05-17T10:25:03.366Z,32.30
2018-05-17T10:27:35.027Z,31.50
2018-05-17T10:30:02.774Z,32.00
2018-05-17T10:32:30.377Z,32.10
2018-05-17T10:34:58.233Z,32.00
2018-05-17T10:37:25.922Z,31.50
2018-05-17T10:39:54.078Z,30.60
2018-05-17T10:42:22.525Z,29.90
2018-05-17T10:44:50.086Z,28.90
2018-05-17T10:47:17.640Z,29.30
2018-05-17T10:49:45.121Z,29.70
2018-05-17T10:52:12.658Z,30.00
2018-05-17T10:54:40.316Z,30.00
2018-05-17T10:57:07.854Z,28.90
2018-05-17T10:59:36.183Z,27.90
2018-05-17T11:02:05.512Z,27.80
2018-05-17T11:04:33.942Z,25.70
2018-05-17T11:07:01.604Z,25.60
2018-05-17T11:09:29.079Z,25.10
2018-05-17T11:11:56.702Z,24.40
2018-05-17T11:14:24.276Z,24.00
2018-05-17T11:16:51.947Z,23.50
2018-05-17T11:19:19.710Z,23.10
2018-05-17T11:21:47.476Z,22.50
2018-05-17T11:24:15.025Z,22.10
2018-05-17T11:26:43.619Z,21.80
2018-05-17T11:29:11.271Z,21.70
2018-05-17T11:31:38.904Z,21.40
2018-05-17T11:34:06.404Z,21.40
2018-05-17T11:36:34.052Z,21.40
2018-05-17T11:39:01.817Z,21.40
2018-05-17T11:41:29.366Z,21.20
2018-05-17T11:43:57.073Z,21.10
2018-05-17T11:46:25.330Z,20.70
2018-05-17T11:48:53.393Z,20.60
2018-05-17T11:51:21.131Z,20.70
2018-05-17T11:53:48.698Z,20.60
2018-05-17T11:56:16.432Z,20.60
2018-05-17T11:58:43.941Z,20.50
2018-05-17T12:01:11.561Z,20.50
2018-05-17T12:03:39.163Z,20.50
2018-05-17T12:06:06.751Z,20.50
2018-05-17T12:08:35.164Z,19.90
2018-05-17T12:11:02.676Z,19.90
2018-05-17T12:13:30.233Z,19.50
2018-05-17T12:15:58.493Z,19.50
2018-05-17T12:18:27.158Z,19.50
2018-05-17T12:20:54.673Z,19.50
2018-05-17T12:23:25.408Z,19.60
2018-05-17T12:25:53.074Z,19.80
2018-05-17T12:28:20.699Z,19.70
2018-05-17T12:30:48.956Z,19.90
2018-05-17T12:33:16.422Z,19.90
2018-05-17T12:35:44.701Z,20.10
2018-05-17T12:38:13.129Z,20.20
2018-05-17T12:40:40.627Z,20.20
2018-05-17T12:43:08.197Z,20.10
2018-05-17T12:45:36.656Z,20.30
2018-05-17T12:48:04.911Z,20.20
2018-05-17T12:50:33.992Z,20.30
2018-05-17T12:53:01.482Z,20.40
2018-05-17T12:55:29.089Z,20.40
2018-05-17T12:57:57.471Z,20.60
2018-05-17T13:00:24.982Z,20.50
2018-05-17T13:02:53.613Z,20.60
2018-05-17T13:05:23.989Z,20.60
2018-05-17T13:07:51.564Z,20.60
2018-05-17T13:10:19.890Z,20.30
2018-05-17T13:12:48.230Z,20.30
2018-05-17T13:15:16.915Z,20.30
2018-05-17T13:17:44.429Z,20.40
2018-05-17T13:20:11.986Z,20.50
2018-05-17T13:22:39.798Z,20.50
2018-05-17T13:25:07.252Z,20.50
2018-05-17T13:27:34.773Z,20.50
2018-05-17T13:30:05.700Z,20.40
2018-05-17T13:32:33.210Z,20.40
2018-05-17T13:35:00.714Z,20.50
2018-05-17T13:37:29.469Z,20.50
2018-05-17T13:39:57.218Z,20.60
2018-05-17T13:42:25.017Z,20.50
2018-05-17T13:44:53.364Z,20.60
2018-05-17T13:47:21.650Z,20.50
2018-05-17T13:49:49.911Z,20.50
2018-05-17T13:52:20.252Z,20.50
2018-05-17T13:54:48.006Z,20.30
2018-05-17T13:57:16.522Z,20.30
2018-05-17T13:59:44.147Z,20.30
2018-05-17T14:02:11.647Z,20.30
2018-05-17T14:04:40.045Z,20.50
2018-05-17T14:07:08.868Z,20.60
2018-05-17T14:09:36.516Z,20.50
2018-05-17T14:12:04.083Z,20.50
2018-05-17T14:14:31.562Z,20.60
2018-05-17T14:16:59.051Z,20.60
2018-05-17T14:19:27.404Z,20.60
2018-05-17T14:21:55.910Z,20.60
2018-05-17T14:24:25.122Z,20.60
2018-05-17T14:36:43.029Z,20.50
2018-05-17T14:39:11.562Z,20.40
2018-05-17T14:41:39.063Z,20.30
2018-05-17T14:44:07.369Z,20.30
2018-05-17T14:46:35.027Z,20.30
2018-05-17T14:49:02.903Z,20.40
2018-05-17T14:51:30.589Z,20.40
2018-05-17T14:53:58.213Z,20.30
2018-05-17T14:56:26.118Z,20.30
2018-05-17T14:58:54.881Z,20.40
2018-05-17T15:01:22.518Z,20.30
2018-05-17T15:03:50.316Z,20.30
2018-05-17T15:06:18.083Z,20.30
2018-05-17T15:08:47.494Z,20.30
2018-05-17T15:11:15.113Z,20.40
2018-05-17T15:13:42.940Z,20.30
2018-05-17T15:16:10.682Z,20.30
2018-05-17T15:18:39.851Z,20.30
2018-05-17T15:21:07.367Z,20.20
2018-05-17T15:23:35.375Z,20.30
2018-05-17T15:26:02.905Z,20.30
2018-05-17T15:28:31.109Z,20.30
2018-05-17T15:30:58.972Z,20.30
2018-05-17T15:33:26.588Z,20.30
2018-05-17T15:35:55.042Z,20.20
2018-05-17T15:38:24.314Z,20.00
2018-05-17T15:40:52.248Z,20.00
2018-05-17T15:43:19.797Z,20.00
2018-05-17T15:45:48.271Z,20.00
2018-05-17T15:48:15.839Z,20.10
2018-05-17T15:50:44.218Z,20.10
2018-05-17T15:53:11.936Z,20.10
2018-05-17T15:55:40.345Z,20.10
2018-05-17T15:58:07.906Z,20.10
2018-05-17T16:00:35.976Z,19.90
2018-05-17T16:03:03.857Z,19.80
2018-05-17T16:05:32.377Z,19.70
2018-05-17T16:08:00.093Z,19.80
2018-05-17T16:10:27.608Z,19.80
2018-05-17T16:12:55.976Z,19.80
2018-05-17T16:15:24.485Z,19.80
2018-05-17T16:17:51.993Z,19.80
2018-05-17T16:20:20.012Z,19.80
2018-05-17T16:22:48.582Z,19.70
2018-05-17T16:25:17.010Z,19.70
2018-05-17T16:27:44.771Z,19.70
2018-05-17T16:30:12.496Z,19.80
2018-05-17T16:32:42.216Z,19.90
2018-05-17T16:35:10.590Z,19.80
2018-05-17T16:37:39.322Z,19.80
2018-05-17T16:40:07.348Z,19.70
2018-05-17T16:42:35.008Z,19.50
2018-05-17T16:45:04.604Z,19.50
2018-05-17T16:47:32.368Z,19.50
2018-05-17T16:50:00.688Z,19.50
2018-05-17T16:52:28.290Z,19.60
2018-05-17T16:54:57.066Z,19.50
2018-05-17T16:57:25.522Z,19.40
2018-05-17T16:59:55.841Z,19.30
2018-05-17T17:12:08.489Z,19.30
2018-05-17T17:14:36.009Z,18.80
2018-05-17T17:17:03.590Z,18.70
2018-05-17T17:19:32.393Z,18.70
2018-05-17T17:21:59.906Z,18.60
2018-05-17T17:24:28.257Z,18.40
2018-05-17T17:27:00.683Z,18.50
2018-05-17T17:29:28.160Z,18.50
2018-05-17T17:31:55.685Z,18.40
2018-05-17T17:34:23.291Z,18.40
2018-05-17T17:36:50.840Z,18.40
2018-05-17T17:39:18.421Z,18.30
2018-05-17T17:44:17.742Z,18.20
2018-05-17T17:46:46.404Z,18.10
2018-05-17T17:49:13.938Z,18.10
2018-05-17T17:51:41.590Z,18.00
2018-05-17T17:54:09.755Z,18.00
2018-05-17T17:56:37.262Z,17.90
2018-05-17T17:59:04.836Z,17.80
2018-05-17T18:01:33.916Z,17.70
2018-05-17T18:04:01.595Z,17.70
2018-05-17T18:06:29.486Z,17.60
2018-05-17T18:08:57.278Z,17.60
2018-05-17T18:11:24.928Z,17.60
2018-05-17T18:13:52.429Z,17.40
2018-05-17T18:16:21.058Z,17.20
2018-05-17T18:18:50.837Z,17.20
2018-05-17T18:21:19.109Z,17.00
2018-05-17T18:23:47.380Z,16.90
2018-05-17T18:26:15.611Z,16.80
2018-05-17T18:28:44.078Z,16.70
2018-05-17T18:31:11.546Z,16.70
2018-05-17T18:33:39.793Z,16.60
2018-05-17T18:36:07.389Z,16.60
2018-05-17T18:38:34.899Z,16.50
2018-05-17T18:44:40.038Z,16.20
2018-05-17T18:47:08.309Z,16.10
2018-05-17T18:49:36.565Z,16.00
2018-05-17T18:54:32.152Z,15.80
2018-05-17T18:57:00.423Z,15.70
2018-05-17T18:59:28.175Z,15.60
2018-05-17T19:01:55.681Z,15.50
2018-05-17T19:04:24.088Z,15.40
2018-05-17T19:06:52.859Z,15.20
2018-05-17T19:09:22.069Z,15.20
2018-05-17T19:11:49.974Z,15.10
2018-05-17T19:14:17.448Z,15.10
2018-05-17T19:16:45.279Z,15.00
2018-05-17T19:19:12.958Z,14.90
2018-05-17T19:21:40.724Z,14.80
2018-05-17T19:24:08.182Z,14.70
2018-05-17T19:26:36.066Z,14.70
2018-05-17T19:29:03.528Z,14.60
2018-05-17T19:31:31.029Z,14.60
2018-05-17T19:33:58.556Z,14.50
2018-05-17T19:36:26.558Z,14.40
2018-05-17T19:38:54.028Z,14.30
2018-05-17T19:41:21.745Z,14.30
2018-05-17T19:43:50.093Z,14.20
2018-05-17T19:46:17.965Z,14.10
2018-05-17T19:48:45.415Z,14.00
2018-05-17T19:51:13.243Z,14.00
2018-05-17T19:53:41.519Z,13.90
2018-05-17T19:56:09.400Z,13.80
2018-05-17T19:58:36.868Z,13.80
2018-05-17T20:01:04.630Z,13.70
2018-05-17T20:03:32.122Z,13.70
2018-05-17T20:06:00.360Z,13.50
2018-05-17T20:08:27.972Z,13.50
2018-05-17T20:10:56.590Z,13.50
2018-05-17T20:13:24.118Z,13.40
2018-05-17T20:15:52.522Z,13.40
2018-05-17T20:18:20.040Z,13.30
2018-05-17T20:20:48.293Z,13.20
2018-05-17T20:23:15.813Z,13.20
2018-05-17T20:38:43.371Z,13.20
2018-05-17T20:41:11.630Z,12.60
2018-05-17T20:43:43.358Z,12.50
2018-05-17T20:46:10.886Z,12.50
2018-05-17T20:48:39.405Z,12.40
2018-05-17T20:51:06.923Z,12.40
2018-05-17T20:53:36.190Z,12.40
2018-05-17T20:56:03.722Z,12.40
2018-05-17T20:58:31.187Z,12.40
2018-05-17T21:00:58.727Z,12.40
2018-05-17T21:03:26.314Z,12.40
2018-05-17T21:05:53.798Z,12.40
2018-05-17T21:08:21.277Z,12.40
2018-05-17T21:10:48.785Z,12.30
2018-05-17T21:13:16.533Z,12.20
2018-05-17T21:15:44.396Z,12.20
2018-05-17T21:18:12.116Z,12.10
2018-05-17T21:20:40.542Z,12.00
2018-05-17T21:23:08.285Z,11.90
2018-05-17T21:25:36.164Z,11.90
2018-05-17T21:28:03.711Z,11.90
2018-05-17T21:30:31.169Z,11.80
2018-05-17T21:32:58.654Z,11.80
2018-05-17T21:35:26.112Z,11.80
2018-05-17T21:37:53.629Z,11.70
2018-05-17T21:40:21.091Z,11.70
2018-05-17T21:42:48.573Z,11.60
2018-05-17T21:45:16.065Z,11.60
2018-05-17T21:47:44.311Z,11.50
2018-05-17T21:50:12.208Z,11.50
2018-05-17T21:52:40.466Z,11.40
2018-05-17T21:55:07.940Z,11.40
2018-05-17T21:57:37.178Z,11.30
2018-05-17T22:00:04.722Z,11.30
2018-05-17T22:02:32.716Z,11.20
2018-05-17T22:05:00.564Z,11.20
2018-05-17T22:07:28.810Z,11.10
2018-05-17T22:09:57.055Z,11.00
2018-05-17T22:12:24.516Z,11.00
2018-05-17T22:14:52.034Z,11.00
2018-05-17T22:17:20.112Z,10.90
2018-05-17T22:19:47.590Z,10.90
2018-05-17T22:22:15.061Z,10.80
2018-05-17T22:24:43.530Z,10.80
2018-05-17T22:27:10.973Z,10.70
2018-05-17T22:29:38.906Z,10.70
2018-05-17T22:32:06.382Z,10.60
2018-05-17T22:34:33.850Z,10.60
2018-05-17T22:37:01.690Z,10.60
2018-05-17T22:39:29.150Z,10.50
2018-05-17T22:41:57.598Z,10.50
2018-05-17T22:44:25.080Z,10.40
2018-05-17T22:46:52.837Z,10.40
2018-05-17T22:49:20.317Z,10.40
2018-05-17T22:51:47.961Z,10.40
2018-05-17T22:54:15.381Z,10.30
2018-05-17T22:56:55.529Z,10.20
2018-05-17T22:59:23.763Z,10.20
2018-05-17T23:01:51.257Z,10.10
2018-05-17T23:04:19.489Z,10.10
2018-05-17T23:06:48.062Z,10.10
2018-05-17T23:09:15.524Z,10.10
2018-05-17T23:11:43.000Z,10.00
2018-05-17T23:14:10.466Z,10.00
2018-05-17T23:16:38.191Z,10.00
2018-05-17T23:19:06.342Z,9.90
2018-05-17T23:21:34.214Z,9.90
2018-05-17T23:24:01.746Z,9.90
2018-05-17T23:26:29.685Z,9.90
2018-05-17T23:28:57.161Z,9.80
2018-05-17T23:31:25.515Z,9.80
2018-05-17T23:33:53.541Z,9.70
2018-05-17T23:36:21.817Z,9.70
2018-05-17T23:38:49.292Z,9.70
2018-05-17T23:41:28.597Z,9.70
2018-05-17T23:43:56.448Z,9.60
2018-05-17T23:46:24.506Z,9.60
2018-05-17T23:48:52.740Z,9.60
2018-05-17T23:51:20.583Z,9.50
2018-05-17T23:53:48.065Z,9.60
2018-05-17T23:56:15.526Z,9.60
2018-05-17T23:58:43.001Z,9.60
